sensor_id;sensor_type;location;lat;lon;timestamp;P1;durP1;ratioP1;P2;durP2;ratioP2
20751;SDS011;10536;51.582;5.016;2022-09-09T00:04:36;11.95;;;6.55;;
20751;SDS011;10536;51.582;5.016;2022-09-09T00:09:43;13.50;;;7.18;;
20751;SDS011;10536;51.582;5.016;2022-09-09T00:14:54;15.98;;;6.63;;
20751;SDS011;10536;51.582;5.016;2022-09-09T00:20:04;15.48;;;6.53;;
20751;SDS011;10536;51.582;5.016;2022-09-09T00:25:35;12.13;;;6.93;;
20751;SDS011;10536;51.582;5.016;2022-09-09T00:30:42;16.08;;;7.10;;
20751;SDS011;10536;51.582;5.016;2022-09-09T00:35:58;15.35;;;7.22;;
20751;SDS011;10536;51.582;5.016;2022-09-09T00:41:05;12.70;;;6.25;;
20751;SDS011;10536;51.582;5.016;2022-09-09T01:07:44;20.40;;;7.72;;
20751;SDS011;10536;51.582;5.016;2022-09-09T01:12:48;19.02;;;7.80;;
20751;SDS011;10536;51.582;5.016;2022-09-09T01:18:04;15.30;;;7.18;;
20751;SDS011;10536;51.582;5.016;2022-09-09T01:28:46;23.33;;;6.90;;
20751;SDS011;10536;51.582;5.016;2022-09-09T01:33:48;26.95;;;8.20;;
20751;SDS011;10536;51.582;5.016;2022-09-09T01:38:49;25.52;;;7.45;;
20751;SDS011;10536;51.582;5.016;2022-09-09T01:43:50;14.73;;;8.27;;
20751;SDS011;10536;51.582;5.016;2022-09-09T01:48:52;21.92;;;8.43;;
20751;SDS011;10536;51.582;5.016;2022-09-09T01:53:53;20.35;;;8.75;;
20751;SDS011;10536;51.582;5.016;2022-09-09T02:04:40;33.72;;;10.20;;
20751;SDS011;10536;51.582;5.016;2022-09-09T02:09:42;18.27;;;9.07;;
20751;SDS011;10536;51.582;5.016;2022-09-09T02:14:55;25.45;;;9.50;;
20751;SDS011;10536;51.582;5.016;2022-09-09T02:20:06;21.65;;;9.60;;
20751;SDS011;10536;51.582;5.016;2022-09-09T02:25:10;23.15;;;10.30;;
20751;SDS011;10536;51.582;5.016;2022-09-09T02:30:15;20.80;;;10.02;;
20751;SDS011;10536;51.582;5.016;2022-09-09T02:35:17;21.60;;;8.85;;
20751;SDS011;10536;51.582;5.016;2022-09-09T02:40:20;22.80;;;9.07;;
20751;SDS011;10536;51.582;5.016;2022-09-09T02:45:25;12.23;;;7.57;;
20751;SDS011;10536;51.582;5.016;2022-09-09T02:50:35;32.72;;;9.05;;
20751;SDS011;10536;51.582;5.016;2022-09-09T02:55:48;19.05;;;7.70;;
20751;SDS011;10536;51.582;5.016;2022-09-09T03:00:54;21.33;;;7.47;;
20751;SDS011;10536;51.582;5.016;2022-09-09T03:05:57;22.50;;;7.55;;
20751;SDS011;10536;51.582;5.016;2022-09-09T03:10:58;22.60;;;6.97;;
20751;SDS011;10536;51.582;5.016;2022-09-09T03:16:01;18.85;;;7.00;;
20751;SDS011;10536;51.582;5.016;2022-09-09T03:21:01;14.52;;;7.63;;
20751;SDS011;10536;51.582;5.016;2022-09-09T03:26:02;18.67;;;7.78;;
20751;SDS011;10536;51.582;5.016;2022-09-09T03:31:03;21.43;;;6.60;;
20751;SDS011;10536;51.582;5.016;2022-09-09T03:36:05;16.48;;;6.75;;
20751;SDS011;10536;51.582;5.016;2022-09-09T03:41:05;29.33;;;7.68;;
20751;SDS011;10536;51.582;5.016;2022-09-09T03:46:06;18.23;;;7.27;;
20751;SDS011;10536;51.582;5.016;2022-09-09T03:51:06;27.20;;;8.30;;
20751;SDS011;10536;51.582;5.016;2022-09-09T03:56:07;19.55;;;6.63;;
20751;SDS011;10536;51.582;5.016;2022-09-09T04:01:09;32.70;;;8.00;;
20751;SDS011;10536;51.582;5.016;2022-09-09T04:06:11;20.73;;;7.68;;
20751;SDS011;10536;51.582;5.016;2022-09-09T04:11:13;15.75;;;6.75;;
20751;SDS011;10536;51.582;5.016;2022-09-09T04:16:14;29.75;;;7.97;;
20751;SDS011;10536;51.582;5.016;2022-09-09T04:21:14;22.88;;;7.05;;
20751;SDS011;10536;51.582;5.016;2022-09-09T04:26:16;27.17;;;8.13;;
20751;SDS011;10536;51.582;5.016;2022-09-09T04:31:17;18.30;;;7.47;;
20751;SDS011;10536;51.582;5.016;2022-09-09T04:36:21;15.63;;;7.63;;
20751;SDS011;10536;51.582;5.016;2022-09-09T04:41:21;25.33;;;8.32;;
20751;SDS011;10536;51.582;5.016;2022-09-09T04:46:22;24.35;;;8.60;;
20751;SDS011;10536;51.582;5.016;2022-09-09T04:51:23;30.30;;;7.97;;
20751;SDS011;10536;51.582;5.016;2022-09-09T04:56:24;23.05;;;8.23;;
20751;SDS011;10536;51.582;5.016;2022-09-09T05:01:26;25.63;;;8.43;;
20751;SDS011;10536;51.582;5.016;2022-09-09T05:06:27;26.40;;;8.73;;
20751;SDS011;10536;51.582;5.016;2022-09-09T05:11:28;27.90;;;7.53;;
20751;SDS011;10536;51.582;5.016;2022-09-09T05:16:30;26.27;;;8.38;;
20751;SDS011;10536;51.582;5.016;2022-09-09T05:21:31;27.63;;;8.93;;
20751;SDS011;10536;51.582;5.016;2022-09-09T05:26:31;35.72;;;8.48;;
20751;SDS011;10536;51.582;5.016;2022-09-09T05:31:32;27.13;;;7.68;;
20751;SDS011;10536;51.582;5.016;2022-09-09T05:36:32;26.05;;;7.80;;
20751;SDS011;10536;51.582;5.016;2022-09-09T05:41:33;36.67;;;8.17;;
20751;SDS011;10536;51.582;5.016;2022-09-09T05:46:34;26.60;;;7.38;;
20751;SDS011;10536;51.582;5.016;2022-09-09T05:51:38;18.90;;;7.38;;
20751;SDS011;10536;51.582;5.016;2022-09-09T05:56:38;31.73;;;7.80;;
20751;SDS011;10536;51.582;5.016;2022-09-09T06:01:39;27.25;;;7.18;;
20751;SDS011;10536;51.582;5.016;2022-09-09T06:06:42;19.67;;;6.20;;
20751;SDS011;10536;51.582;5.016;2022-09-09T06:11:43;35.03;;;7.47;;
20751;SDS011;10536;51.582;5.016;2022-09-09T06:16:44;28.83;;;7.13;;
20751;SDS011;10536;51.582;5.016;2022-09-09T06:21:45;31.83;;;7.25;;
20751;SDS011;10536;51.582;5.016;2022-09-09T06:26:45;33.87;;;7.20;;
20751;SDS011;10536;51.582;5.016;2022-09-09T06:31:46;25.48;;;6.28;;
20751;SDS011;10536;51.582;5.016;2022-09-09T06:36:47;33.58;;;6.95;;
20751;SDS011;10536;51.582;5.016;2022-09-09T06:41:48;29.65;;;6.65;;
20751;SDS011;10536;51.582;5.016;2022-09-09T06:46:52;29.00;;;7.93;;
20751;SDS011;10536;51.582;5.016;2022-09-09T06:52:09;26.50;;;7.70;;
20751;SDS011;10536;51.582;5.016;2022-09-09T06:57:09;22.30;;;6.53;;
20751;SDS011;10536;51.582;5.016;2022-09-09T07:02:10;31.23;;;7.93;;
20751;SDS011;10536;51.582;5.016;2022-09-09T07:07:11;20.45;;;6.90;;
20751;SDS011;10536;51.582;5.016;2022-09-09T07:12:13;25.30;;;9.75;;
20751;SDS011;10536;51.582;5.016;2022-09-09T07:17:14;22.17;;;5.82;;
20751;SDS011;10536;51.582;5.016;2022-09-09T07:22:14;20.98;;;6.53;;
20751;SDS011;10536;51.582;5.016;2022-09-09T07:27:16;20.80;;;5.75;;
20751;SDS011;10536;51.582;5.016;2022-09-09T07:32:16;20.30;;;5.40;;
20751;SDS011;10536;51.582;5.016;2022-09-09T07:37:17;24.48;;;6.00;;
20751;SDS011;10536;51.582;5.016;2022-09-09T07:42:18;17.83;;;4.77;;
20751;SDS011;10536;51.582;5.016;2022-09-09T07:47:19;20.35;;;4.95;;
20751;SDS011;10536;51.582;5.016;2022-09-09T07:52:20;19.10;;;4.68;;
20751;SDS011;10536;51.582;5.016;2022-09-09T07:57:20;15.00;;;4.23;;
20751;SDS011;10536;51.582;5.016;2022-09-09T08:02:21;15.95;;;3.83;;
20751;SDS011;10536;51.582;5.016;2022-09-09T08:07:23;13.90;;;3.83;;
20751;SDS011;10536;51.582;5.016;2022-09-09T08:12:24;19.38;;;3.78;;
20751;SDS011;10536;51.582;5.016;2022-09-09T08:17:24;11.07;;;3.60;;
20751;SDS011;10536;51.582;5.016;2022-09-09T08:22:25;14.50;;;3.80;;
20751;SDS011;10536;51.582;5.016;2022-09-09T08:27:26;19.98;;;3.90;;
20751;SDS011;10536;51.582;5.016;2022-09-09T08:32:27;18.17;;;3.53;;
20751;SDS011;10536;51.582;5.016;2022-09-09T08:37:27;27.05;;;4.60;;
20751;SDS011;10536;51.582;5.016;2022-09-09T08:42:31;17.27;;;3.38;;
20751;SDS011;10536;51.582;5.016;2022-09-09T08:58:33;19.65;;;3.63;;
20751;SDS011;10536;51.582;5.016;2022-09-09T09:09:28;17.50;;;3.65;;
20751;SDS011;10536;51.582;5.016;2022-09-09T09:14:51;15.82;;;2.80;;
20751;SDS011;10536;51.582;5.016;2022-09-09T09:19:52;13.20;;;2.28;;
20751;SDS011;10536;51.582;5.016;2022-09-09T09:30:10;10.90;;;2.63;;
20751;SDS011;10536;51.582;5.016;2022-09-09T09:35:13;18.55;;;3.33;;
20751;SDS011;10536;51.582;5.016;2022-09-09T09:40:15;13.02;;;3.33;;
20751;SDS011;10536;51.582;5.016;2022-09-09T09:45:33;12.93;;;3.63;;
20751;SDS011;10536;51.582;5.016;2022-09-09T09:50:55;16.48;;;4.50;;
20751;SDS011;10536;51.582;5.016;2022-09-09T09:56:05;19.02;;;4.10;;
20751;SDS011;10536;51.582;5.016;2022-09-09T10:01:18;21.30;;;4.03;;
20751;SDS011;10536;51.582;5.016;2022-09-09T10:06:34;14.75;;;3.50;;
20751;SDS011;10536;51.582;5.016;2022-09-09T10:11:44;20.90;;;3.22;;
20751;SDS011;10536;51.582;5.016;2022-09-09T10:17:06;6.93;;;2.67;;
20751;SDS011;10536;51.582;5.016;2022-09-09T10:22:27;16.23;;;3.43;;
20751;SDS011;10536;51.582;5.016;2022-09-09T10:32:49;13.13;;;2.55;;
20751;SDS011;10536;51.582;5.016;2022-09-09T10:38:12;14.73;;;3.22;;
20751;SDS011;10536;51.582;5.016;2022-09-09T10:48:25;10.00;;;2.85;;
20751;SDS011;10536;51.582;5.016;2022-09-09T10:59:18;15.63;;;3.42;;
20751;SDS011;10536;51.582;5.016;2022-09-09T11:04:29;12.23;;;3.83;;
20751;SDS011;10536;51.582;5.016;2022-09-09T11:09:40;8.77;;;3.22;;
20751;SDS011;10536;51.582;5.016;2022-09-09T11:14:49;11.25;;;3.40;;
20751;SDS011;10536;51.582;5.016;2022-09-09T11:19:55;8.48;;;3.15;;
20751;SDS011;10536;51.582;5.016;2022-09-09T11:25:05;13.55;;;3.92;;
20751;SDS011;10536;51.582;5.016;2022-09-09T11:30:22;7.70;;;3.70;;
20751;SDS011;10536;51.582;5.016;2022-09-09T11:40:38;11.43;;;3.88;;
20751;SDS011;10536;51.582;5.016;2022-09-09T11:45:42;12.00;;;3.08;;
20751;SDS011;10536;51.582;5.016;2022-09-09T11:51:00;5.87;;;2.47;;
20751;SDS011;10536;51.582;5.016;2022-09-09T11:56:11;6.50;;;3.00;;
20751;SDS011;10536;51.582;5.016;2022-09-09T12:01:59;6.55;;;2.58;;
20751;SDS011;10536;51.582;5.016;2022-09-09T12:12:04;8.77;;;2.97;;
20751;SDS011;10536;51.582;5.016;2022-09-09T12:22:20;7.00;;;2.67;;
20751;SDS011;10536;51.582;5.016;2022-09-09T12:27:46;8.15;;;2.85;;
20751;SDS011;10536;51.582;5.016;2022-09-09T12:33:01;5.43;;;3.08;;
20751;SDS011;10536;51.582;5.016;2022-09-09T12:38:11;8.95;;;3.20;;
20751;SDS011;10536;51.582;5.016;2022-09-09T12:43:20;9.50;;;2.63;;
20751;SDS011;10536;51.582;5.016;2022-09-09T12:48:24;9.83;;;2.40;;
20751;SDS011;10536;51.582;5.016;2022-09-09T12:53:32;6.78;;;2.20;;
20751;SDS011;10536;51.582;5.016;2022-09-09T12:58:44;5.32;;;1.80;;
20751;SDS011;10536;51.582;5.016;2022-09-09T13:03:47;4.60;;;1.40;;
20751;SDS011;10536;51.582;5.016;2022-09-09T13:08:49;5.45;;;1.70;;
20751;SDS011;10536;51.582;5.016;2022-09-09T13:13:54;5.15;;;1.42;;
20751;SDS011;10536;51.582;5.016;2022-09-09T13:18:57;4.45;;;1.45;;
20751;SDS011;10536;51.582;5.016;2022-09-09T13:24:21;4.93;;;1.60;;
20751;SDS011;10536;51.582;5.016;2022-09-09T13:29:31;6.55;;;1.35;;
20751;SDS011;10536;51.582;5.016;2022-09-09T13:34:33;3.15;;;1.30;;
20751;SDS011;10536;51.582;5.016;2022-09-09T13:39:36;2.42;;;0.98;;
20751;SDS011;10536;51.582;5.016;2022-09-09T13:44:38;3.95;;;0.98;;
20751;SDS011;10536;51.582;5.016;2022-09-09T13:49:41;4.63;;;1.52;;
20751;SDS011;10536;51.582;5.016;2022-09-09T13:54:42;6.93;;;0.93;;
20751;SDS011;10536;51.582;5.016;2022-09-09T13:59:43;4.22;;;1.00;;
20751;SDS011;10536;51.582;5.016;2022-09-09T14:04:45;3.58;;;1.10;;
20751;SDS011;10536;51.582;5.016;2022-09-09T14:09:45;3.07;;;0.80;;
20751;SDS011;10536;51.582;5.016;2022-09-09T14:19:50;5.38;;;1.25;;
20751;SDS011;10536;51.582;5.016;2022-09-09T14:24:51;25.20;;;3.90;;
20751;SDS011;10536;51.582;5.016;2022-09-09T14:29:51;5.28;;;1.73;;
20751;SDS011;10536;51.582;5.016;2022-09-09T14:34:52;10.80;;;2.70;;
20751;SDS011;10536;51.582;5.016;2022-09-09T14:39:53;6.73;;;2.70;;
20751;SDS011;10536;51.582;5.016;2022-09-09T14:44:54;6.63;;;2.15;;
20751;SDS011;10536;51.582;5.016;2022-09-09T14:49:54;6.13;;;2.83;;
20751;SDS011;10536;51.582;5.016;2022-09-09T14:54:55;5.50;;;3.00;;
20751;SDS011;10536;51.582;5.016;2022-09-09T14:59:55;7.53;;;2.03;;
20751;SDS011;10536;51.582;5.016;2022-09-09T15:04:56;2.60;;;1.98;;
20751;SDS011;10536;51.582;5.016;2022-09-09T15:09:58;3.10;;;2.05;;
20751;SDS011;10536;51.582;5.016;2022-09-09T15:14:58;4.17;;;2.23;;
20751;SDS011;10536;51.582;5.016;2022-09-09T15:19:59;2.50;;;2.30;;
20751;SDS011;10536;51.582;5.016;2022-09-09T15:24:59;5.05;;;2.58;;
20751;SDS011;10536;51.582;5.016;2022-09-09T15:30:00;3.15;;;2.83;;
20751;SDS011;10536;51.582;5.016;2022-09-09T15:35:01;6.97;;;3.75;;
20751;SDS011;10536;51.582;5.016;2022-09-09T15:40:01;10.55;;;3.45;;
20751;SDS011;10536;51.582;5.016;2022-09-09T15:45:03;6.22;;;3.67;;
20751;SDS011;10536;51.582;5.016;2022-09-09T15:50:05;7.28;;;3.42;;
20751;SDS011;10536;51.582;5.016;2022-09-09T15:55:05;8.20;;;4.20;;
20751;SDS011;10536;51.582;5.016;2022-09-09T16:00:08;7.70;;;4.13;;
20751;SDS011;10536;51.582;5.016;2022-09-09T16:05:09;7.63;;;5.00;;
20751;SDS011;10536;51.582;5.016;2022-09-09T16:10:09;6.68;;;5.35;;
20751;SDS011;10536;51.582;5.016;2022-09-09T16:15:11;10.05;;;5.32;;
20751;SDS011;10536;51.582;5.016;2022-09-09T16:20:12;10.77;;;4.93;;
20751;SDS011;10536;51.582;5.016;2022-09-09T16:25:17;5.90;;;5.13;;
20751;SDS011;10536;51.582;5.016;2022-09-09T16:30:45;6.60;;;4.68;;
20751;SDS011;10536;51.582;5.016;2022-09-09T16:35:45;7.00;;;4.97;;
20751;SDS011;10536;51.582;5.016;2022-09-09T16:40:45;10.47;;;5.13;;
20751;SDS011;10536;51.582;5.016;2022-09-09T16:45:50;6.65;;;4.60;;
20751;SDS011;10536;51.582;5.016;2022-09-09T16:50:53;4.55;;;4.18;;
20751;SDS011;10536;51.582;5.016;2022-09-09T16:55:53;7.13;;;4.20;;
20751;SDS011;10536;51.582;5.016;2022-09-09T17:00:57;8.53;;;3.50;;
20751;SDS011;10536;51.582;5.016;2022-09-09T17:06:01;5.50;;;3.22;;
20751;SDS011;10536;51.582;5.016;2022-09-09T17:11:15;3.42;;;3.15;;
20751;SDS011;10536;51.582;5.016;2022-09-09T17:16:23;5.68;;;2.53;;
20751;SDS011;10536;51.582;5.016;2022-09-09T17:21:27;5.38;;;3.22;;
20751;SDS011;10536;51.582;5.016;2022-09-09T17:26:29;3.95;;;3.20;;
20751;SDS011;10536;51.582;5.016;2022-09-09T17:31:32;6.13;;;3.73;;
20751;SDS011;10536;51.582;5.016;2022-09-09T17:36:33;6.03;;;4.30;;
20751;SDS011;10536;51.582;5.016;2022-09-09T17:41:35;4.35;;;3.95;;
20751;SDS011;10536;51.582;5.016;2022-09-09T17:46:39;6.35;;;4.13;;
20751;SDS011;10536;51.582;5.016;2022-09-09T17:51:41;7.32;;;4.22;;
20751;SDS011;10536;51.582;5.016;2022-09-09T17:56:45;8.57;;;4.80;;
20751;SDS011;10536;51.582;5.016;2022-09-09T18:01:47;11.73;;;5.03;;
20751;SDS011;10536;51.582;5.016;2022-09-09T18:06:50;8.15;;;4.90;;
20751;SDS011;10536;51.582;5.016;2022-09-09T18:12:02;9.80;;;5.32;;
20751;SDS011;10536;51.582;5.016;2022-09-09T18:17:36;9.88;;;5.63;;
20751;SDS011;10536;51.582;5.016;2022-09-09T18:22:37;8.02;;;6.00;;
20751;SDS011;10536;51.582;5.016;2022-09-09T18:27:37;8.53;;;6.83;;
20751;SDS011;10536;51.582;5.016;2022-09-09T18:32:59;12.82;;;6.93;;
20751;SDS011;10536;51.582;5.016;2022-09-09T18:37:58;10.95;;;7.68;;
20751;SDS011;10536;51.582;5.016;2022-09-09T18:42:59;12.10;;;7.90;;
20751;SDS011;10536;51.582;5.016;2022-09-09T18:47:59;18.98;;;9.55;;
20751;SDS011;10536;51.582;5.016;2022-09-09T18:53:00;14.75;;;10.15;;
20751;SDS011;10536;51.582;5.016;2022-09-09T18:58:03;13.47;;;9.33;;
20751;SDS011;10536;51.582;5.016;2022-09-09T19:03:22;17.73;;;10.82;;
20751;SDS011;10536;51.582;5.016;2022-09-09T19:08:24;13.88;;;11.10;;
20751;SDS011;10536;51.582;5.016;2022-09-09T19:13:24;18.07;;;11.20;;
20751;SDS011;10536;51.582;5.016;2022-09-09T19:18:26;14.35;;;10.93;;
20751;SDS011;10536;51.582;5.016;2022-09-09T19:23:26;11.10;;;9.97;;
20751;SDS011;10536;51.582;5.016;2022-09-09T19:28:30;11.93;;;10.18;;
20751;SDS011;10536;51.582;5.016;2022-09-09T19:33:32;13.50;;;10.35;;
20751;SDS011;10536;51.582;5.016;2022-09-09T19:38:33;12.15;;;10.55;;
20751;SDS011;10536;51.582;5.016;2022-09-09T19:43:37;19.38;;;10.00;;
20751;SDS011;10536;51.582;5.016;2022-09-09T19:48:39;12.50;;;10.95;;
20751;SDS011;10536;51.582;5.016;2022-09-09T19:53:56;14.75;;;11.27;;
20751;SDS011;10536;51.582;5.016;2022-09-09T19:59:02;15.93;;;12.50;;
20751;SDS011;10536;51.582;5.016;2022-09-09T20:04:06;16.92;;;13.63;;
20751;SDS011;10536;51.582;5.016;2022-09-09T20:09:34;14.77;;;13.10;;
20751;SDS011;10536;51.582;5.016;2022-09-09T20:14:34;21.07;;;14.33;;
20751;SDS011;10536;51.582;5.016;2022-09-09T20:19:35;21.13;;;15.57;;
20751;SDS011;10536;51.582;5.016;2022-09-09T20:24:35;16.63;;;14.27;;
20751;SDS011;10536;51.582;5.016;2022-09-09T20:29:36;20.17;;;14.95;;
20751;SDS011;10536;51.582;5.016;2022-09-09T20:34:43;21.67;;;15.90;;
20751;SDS011;10536;51.582;5.016;2022-09-09T20:39:45;22.08;;;15.45;;
20751;SDS011;10536;51.582;5.016;2022-09-09T20:44:46;20.47;;;13.60;;
20751;SDS011;10536;51.582;5.016;2022-09-09T20:49:46;19.90;;;12.33;;
20751;SDS011;10536;51.582;5.016;2022-09-09T20:54:53;18.85;;;10.60;;
20751;SDS011;10536;51.582;5.016;2022-09-09T20:59:53;18.92;;;9.13;;
20751;SDS011;10536;51.582;5.016;2022-09-09T21:04:54;13.33;;;8.43;;
20751;SDS011;10536;51.582;5.016;2022-09-09T21:09:54;16.50;;;7.90;;
20751;SDS011;10536;51.582;5.016;2022-09-09T21:14:57;14.32;;;6.60;;
20751;SDS011;10536;51.582;5.016;2022-09-09T21:20:02;16.75;;;6.40;;
20751;SDS011;10536;51.582;5.016;2022-09-09T21:25:05;16.25;;;7.05;;
20751;SDS011;10536;51.582;5.016;2022-09-09T21:30:07;17.25;;;5.75;;
20751;SDS011;10536;51.582;5.016;2022-09-09T21:35:08;12.43;;;5.45;;
20751;SDS011;10536;51.582;5.016;2022-09-09T21:40:11;18.52;;;5.50;;
20751;SDS011;10536;51.582;5.016;2022-09-09T21:45:14;10.77;;;4.97;;
20751;SDS011;10536;51.582;5.016;2022-09-09T21:50:14;11.70;;;4.38;;
20751;SDS011;10536;51.582;5.016;2022-09-09T21:55:15;10.52;;;4.70;;
20751;SDS011;10536;51.582;5.016;2022-09-09T22:00:16;17.02;;;5.18;;
20751;SDS011;10536;51.582;5.016;2022-09-09T22:05:17;18.58;;;4.97;;
20751;SDS011;10536;51.582;5.016;2022-09-09T22:10:18;15.10;;;4.10;;
20751;SDS011;10536;51.582;5.016;2022-09-09T22:15:25;15.88;;;4.38;;
20751;SDS011;10536;51.582;5.016;2022-09-09T22:20:26;17.90;;;4.57;;
20751;SDS011;10536;51.582;5.016;2022-09-09T22:25:44;14.83;;;4.10;;
20751;SDS011;10536;51.582;5.016;2022-09-09T22:30:44;19.50;;;4.05;;
20751;SDS011;10536;51.582;5.016;2022-09-09T22:35:44;14.32;;;3.55;;
20751;SDS011;10536;51.582;5.016;2022-09-09T22:41:02;11.20;;;3.53;;
20751;SDS011;10536;51.582;5.016;2022-09-09T22:51:40;12.43;;;4.03;;
20751;SDS011;10536;51.582;5.016;2022-09-09T22:56:43;12.17;;;4.40;;
20751;SDS011;10536;51.582;5.016;2022-09-09T23:01:46;12.00;;;5.18;;
20751;SDS011;10536;51.582;5.016;2022-09-09T23:06:46;25.55;;;5.38;;
20751;SDS011;10536;51.582;5.016;2022-09-09T23:18:28;15.00;;;5.90;;
20751;SDS011;10536;51.582;5.016;2022-09-09T23:23:29;16.27;;;6.10;;
20751;SDS011;10536;51.582;5.016;2022-09-09T23:28:30;21.70;;;6.72;;
20751;SDS011;10536;51.582;5.016;2022-09-09T23:33:32;22.48;;;6.88;;
20751;SDS011;10536;51.582;5.016;2022-09-09T23:38:33;21.35;;;7.43;;
20751;SDS011;10536;51.582;5.016;2022-09-09T23:43:37;17.07;;;8.97;;
20751;SDS011;10536;51.582;5.016;2022-09-09T23:48:40;21.00;;;8.27;;
20751;SDS011;10536;51.582;5.016;2022-09-09T23:53:42;17.70;;;8.48;;
20751;SDS011;10536;51.582;5.016;2022-09-09T23:58:50;21.02;;;9.82;;
